Terminal Aerodrome Forecast
Issued by NWS Wakefield, VA

Home | Current Version | Previous Version | Text Only | Print | Product List | Glossary On
Versions: 1 2 3 4 5 6 7 8 9 10 11 12 13 14 15 16 17
000
FTUS41 KAKQ 230500 RRA
TAFORF
TAF
KORF 230546Z 2306/2406 26006KT P6SM BKN070 BKN090
     FM230900 35014G22KT P6SM SCT090
     FM231300 32017G26KT P6SM SCT060
     FM232300 35013G20KT P6SM SKC=

USA.gov is the U.S. government's official web portal to all federal, state and local government web resources and services.